Time;durP1;ratioP1;P1;durP2;ratioP2;P2;SDS_P1;SDS_P2;PMS_P1;PMS_P2;Temp;Humidity;BMP_temperature;BMP_pressure;BME280_temperature;BME280_humidity;BME280_pressure;Samples;Min_cycle;Max_cycle;Signal;HPM_P1;HPM_P2
2023/10/11 00:00:52;;;;;;;9.80;5.57;;;;;;;;;;5049812;28;20610;-68
2023/10/11 00:03:32;;;;;;;7.28;4.57;;;;;;;;;;5049628;28;20237;-68
2023/10/11 00:06:00;;;;;;;11.48;5.32;;;;;;;;;;5048053;28;20286;-68
2023/10/11 00:08:27;;;;;;;6.97;4.15;;;;;;;;;;5049254;28;20219;-69
2023/10/11 00:10:54;;;;;;;7.85;3.97;;;;;;;;;;5049725;28;20547;-68
2023/10/11 00:13:23;;;;;;;6.05;4.03;;;;;;;;;;5049558;28;20222;-69
2023/10/11 00:15:52;;;;;;;7.03;4.47;;;;;;;;;;5049346;28;20196;-68
2023/10/11 00:18:20;;;;;;;13.40;4.82;;;;;;;;;;5048563;28;20255;-68
2023/10/11 00:20:56;;;;;;;12.63;4.35;;;;;;;;;;5048947;28;20212;-68
2023/10/11 00:23:24;;;;;;;12.18;5.15;;;;;;;;;;5047372;28;20207;-68
2023/10/11 00:25:52;;;;;;;12.63;4.93;;;;;;;;;;5047100;28;20208;-69
2023/10/11 00:28:26;;;;;;;7.50;4.55;;;;;;;;;;5048574;28;20658;-68
2023/10/11 00:30:54;;;;;;;7.35;4.85;;;;;;;;;;5048249;28;20237;-69
2023/10/11 00:33:21;;;;;;;6.65;4.53;;;;;;;;;;5044809;28;20200;-68
2023/10/11 00:35:48;;;;;;;8.88;4.50;;;;;;;;;;5030036;28;20224;-68
2023/10/11 00:38:18;;;;;;;8.13;4.80;;;;;;;;;;5038472;28;20717;-68
2023/10/11 00:40:45;;;;;;;9.70;4.70;;;;;;;;;;5048985;28;20751;-68
2023/10/11 00:43:16;;;;;;;6.53;4.40;;;;;;;;;;5049369;28;20288;-68
2023/10/11 00:45:45;;;;;;;9.57;4.55;;;;;;;;;;5049835;28;20207;-68
2023/10/11 00:48:13;;;;;;;10.60;5.03;;;;;;;;;;5048579;28;20207;-68
2023/10/11 00:50:41;;;;;;;12.15;5.20;;;;;;;;;;5048977;28;20191;-68
2023/10/11 00:53:09;;;;;;;5.82;4.28;;;;;;;;;;5049682;28;20222;-69
2023/10/11 00:55:37;;;;;;;12.32;4.80;;;;;;;;;;5049301;28;20209;-68
2023/10/11 00:58:04;;;;;;;7.72;4.68;;;;;;;;;;5049023;28;20228;-68
2023/10/11 01:00:36;;;;;;;9.55;4.82;;;;;;;;;;5048211;28;20200;-68
2023/10/11 01:03:08;;;;;;;9.90;5.07;;;;;;;;;;5049357;28;20698;-69
2023/10/11 01:05:43;;;;;;;7.65;4.22;;;;;;;;;;5048385;28;20598;-68
2023/10/11 01:08:11;;;;;;;6.00;4.65;;;;;;;;;;5049283;28;20229;-68
2023/10/11 01:10:39;;;;;;;7.63;4.43;;;;;;;;;;5048761;28;20273;-68
2023/10/11 01:13:12;;;;;;;8.07;4.53;;;;;;;;;;5048745;28;21110;-68
2023/10/11 01:15:40;;;;;;;12.90;5.05;;;;;;;;;;5048585;28;20212;-68
2023/10/11 01:18:10;;;;;;;9.13;4.82;;;;;;;;;;5048421;28;20358;-68
2023/10/11 01:20:39;;;;;;;12.38;5.45;;;;;;;;;;5048780;28;20755;-69
2023/10/11 01:23:06;;;;;;;11.20;5.38;;;;;;;;;;5048608;28;20223;-69
2023/10/11 01:25:33;;;;;;;11.57;5.22;;;;;;;;;;5048347;28;20214;-69
2023/10/11 01:28:01;;;;;;;13.90;5.63;;;;;;;;;;5048180;28;20854;-68
2023/10/11 01:30:28;;;;;;;12.15;5.45;;;;;;;;;;5048589;28;20208;-69
2023/10/11 01:32:55;;;;;;;15.38;5.28;;;;;;;;;;5048082;28;20600;-68
2023/10/11 01:35:23;;;;;;;15.00;5.07;;;;;;;;;;5047772;28;20211;-68
2023/10/11 01:37:55;;;;;;;12.82;5.50;;;;;;;;;;5047956;28;20227;-69
2023/10/11 01:40:24;;;;;;;8.95;4.90;;;;;;;;;;5048471;28;20290;-69
2023/10/11 01:42:51;;;;;;;11.32;4.85;;;;;;;;;;5047432;28;20254;-69
2023/10/11 01:45:18;;;;;;;9.80;4.72;;;;;;;;;;5048066;28;20622;-68
2023/10/11 01:47:47;;;;;;;6.93;4.60;;;;;;;;;;5048215;28;20203;-68
2023/10/11 01:50:15;;;;;;;10.63;5.40;;;;;;;;;;5048242;28;20590;-68
2023/10/11 01:52:42;;;;;;;9.70;4.60;;;;;;;;;;5047917;28;20203;-68
2023/10/11 01:55:14;;;;;;;10.32;4.50;;;;;;;;;;5047884;28;20211;-68
2023/10/11 01:57:45;;;;;;;9.25;5.65;;;;;;;;;;5047796;28;20243;-68
2023/10/11 02:00:14;;;;;;;6.82;4.55;;;;;;;;;;5047938;28;20670;-68
2023/10/11 02:02:47;;;;;;;7.85;4.95;;;;;;;;;;5047884;28;20658;-68
2023/10/11 02:05:14;;;;;;;10.67;4.77;;;;;;;;;;5047340;28;20708;-68
2023/10/11 02:07:41;;;;;;;8.60;5.38;;;;;;;;;;5047323;28;20207;-69
2023/10/11 02:10:12;;;;;;;7.22;4.90;;;;;;;;;;5048189;28;20254;-69
2023/10/11 02:12:44;;;;;;;10.20;5.20;;;;;;;;;;5046767;28;20740;-68
2023/10/11 02:15:12;;;;;;;14.50;5.57;;;;;;;;;;5047623;28;20231;-68
2023/10/11 02:17:39;;;;;;;6.03;4.93;;;;;;;;;;5046967;28;20227;-68
2023/10/11 02:20:13;;;;;;;9.15;5.40;;;;;;;;;;5047884;28;20203;-68
2023/10/11 02:22:44;;;;;;;9.75;5.70;;;;;;;;;;5047890;28;20239;-68
2023/10/11 02:25:15;;;;;;;7.18;5.13;;;;;;;;;;5047475;28;20310;-68
2023/10/11 02:27:43;;;;;;;11.43;5.57;;;;;;;;;;5045799;28;20208;-68
2023/10/11 02:30:14;;;;;;;9.32;4.95;;;;;;;;;;5047307;28;20216;-68
2023/10/11 02:32:44;;;;;;;11.77;5.33;;;;;;;;;;5047303;28;20803;-68
2023/10/11 02:35:13;;;;;;;11.40;5.27;;;;;;;;;;5046793;28;20210;-68
2023/10/11 02:37:40;;;;;;;14.83;5.63;;;;;;;;;;5046526;28;20224;-71
2023/10/11 02:40:09;;;;;;;15.48;5.90;;;;;;;;;;5047492;28;20211;-70
2023/10/11 02:42:37;;;;;;;10.87;5.70;;;;;;;;;;5046963;28;20231;-70
2023/10/11 02:45:07;;;;;;;9.45;5.30;;;;;;;;;;5047076;28;20208;-70
2023/10/11 02:47:35;;;;;;;8.60;5.70;;;;;;;;;;5047196;28;20230;-67
2023/10/11 02:50:07;;;;;;;8.97;5.63;;;;;;;;;;5046595;28;20730;-67
2023/10/11 02:52:36;;;;;;;11.13;5.57;;;;;;;;;;5047116;28;20323;-67
2023/10/11 02:55:20;;;;;;;14.30;6.57;;;;;;;;;;5046682;28;20223;-67
2023/10/11 02:58:04;;;;;;;12.53;5.60;;;;;;;;;;5046767;28;20246;-67
2023/10/11 03:00:33;;;;;;;8.20;5.40;;;;;;;;;;5046699;28;20211;-68
2023/10/11 03:03:00;;;;;;;12.07;5.90;;;;;;;;;;5046742;28;20273;-67
2023/10/11 03:05:28;;;;;;;12.57;5.70;;;;;;;;;;5047110;28;20580;-68
2023/10/11 03:08:13;;;;;;;15.73;6.00;;;;;;;;;;5046723;28;20680;-67
2023/10/11 03:10:43;;;;;;;11.20;5.53;;;;;;;;;;5047166;28;20304;-68
2023/10/11 03:13:19;;;;;;;9.53;5.33;;;;;;;;;;5047077;28;20208;-67
2023/10/11 03:15:54;;;;;;;9.67;5.80;;;;;;;;;;5046966;28;20298;-68
2023/10/11 03:18:22;;;;;;;12.00;5.40;;;;;;;;;;5046516;28;20223;-68
2023/10/11 03:20:50;;;;;;;17.07;6.23;;;;;;;;;;5046842;28;20200;-67
2023/10/11 03:23:21;;;;;;;9.00;5.30;;;;;;;;;;5047033;28;20242;-67
2023/10/11 03:25:49;;;;;;;10.13;5.50;;;;;;;;;;5047256;28;20302;-67
2023/10/11 03:28:26;;;;;;;11.07;6.20;;;;;;;;;;5046326;28;20192;-68
2023/10/11 03:30:53;;;;;;;9.63;5.80;;;;;;;;;;5047021;28;20231;-67
2023/10/11 03:33:21;;;;;;;15.23;6.13;;;;;;;;;;5046796;28;20233;-67
2023/10/11 03:35:50;;;;;;;15.07;5.53;;;;;;;;;;5046919;28;20231;-67
2023/10/11 03:38:19;;;;;;;9.43;6.07;;;;;;;;;;5046748;28;20227;-68
2023/10/11 03:41:07;;;;;;;13.50;6.07;;;;;;;;;;5047056;28;20219;-68
2023/10/11 03:43:40;;;;;;;13.77;5.50;;;;;;;;;;5035566;28;20870;-68
2023/10/11 03:46:09;;;;;;;9.57;5.40;;;;;;;;;;5046920;28;20858;-67
2023/10/11 03:48:44;;;;;;;14.20;5.90;;;;;;;;;;5046732;28;20253;-67
2023/10/11 03:51:11;;;;;;;10.00;5.10;;;;;;;;;;5046361;28;20203;-68
2023/10/11 03:53:39;;;;;;;11.57;5.70;;;;;;;;;;5045657;28;20253;-68
2023/10/11 03:56:06;;;;;;;10.80;5.13;;;;;;;;;;5047173;28;20230;-67
2023/10/11 03:58:37;;;;;;;14.07;5.93;;;;;;;;;;5046274;28;20235;-67
2023/10/11 04:01:12;;;;;;;9.57;5.53;;;;;;;;;;5046060;28;20227;-68
2023/10/11 04:03:40;;;;;;;14.57;5.43;;;;;;;;;;5045719;28;20208;-67
2023/10/11 04:06:14;;;;;;;10.17;5.63;;;;;;;;;;5046084;28;20231;-70
2023/10/11 04:08:43;;;;;;;8.67;5.40;;;;;;;;;;5045596;28;20767;-69
2023/10/11 04:11:17;;;;;;;9.83;5.97;;;;;;;;;;5046568;28;20204;-68
2023/10/11 04:13:46;;;;;;;8.90;5.83;;;;;;;;;;5045625;28;20215;-69
2023/10/11 04:16:14;;;;;;;8.53;5.53;;;;;;;;;;5046629;28;20200;-70
2023/10/11 04:18:41;;;;;;;9.97;5.70;;;;;;;;;;5045681;28;20323;-70
2023/10/11 04:21:26;;;;;;;9.63;5.53;;;;;;;;;;5046694;28;20872;-69
2023/10/11 04:23:55;;;;;;;10.27;5.50;;;;;;;;;;5046388;28;20239;-69
2023/10/11 04:26:36;;;;;;;9.67;4.87;;;;;;;;;;5046347;28;20214;-70
2023/10/11 04:29:06;;;;;;;9.07;5.83;;;;;;;;;;5046289;28;20212;-67
2023/10/11 04:31:53;;;;;;;8.43;4.67;;;;;;;;;;5046280;28;20239;-69
2023/10/11 04:34:23;;;;;;;12.40;5.40;;;;;;;;;;5046060;28;20253;-68
2023/10/11 04:36:51;;;;;;;10.37;6.43;;;;;;;;;;5050039;28;20250;-67
2023/10/11 04:39:27;;;;;;;9.90;5.50;;;;;;;;;;5048782;28;20219;-67
2023/10/11 04:41:56;;;;;;;12.33;5.40;;;;;;;;;;5049210;28;20658;-68
2023/10/11 04:44:31;;;;;;;8.53;5.77;;;;;;;;;;5048815;28;20858;-68
2023/10/11 04:46:58;;;;;;;10.60;5.70;;;;;;;;;;5047929;28;20231;-68
2023/10/11 04:49:25;;;;;;;7.00;5.30;;;;;;;;;;5049666;28;20202;-69
2023/10/11 04:51:56;;;;;;;9.03;5.70;;;;;;;;;;5049444;28;20326;-69
2023/10/11 04:54:35;;;;;;;7.23;5.27;;;;;;;;;;5050209;28;20295;-69
2023/10/11 04:57:06;;;;;;;11.60;5.13;;;;;;;;;;5049618;28;20221;-69
2023/10/11 04:59:37;;;;;;;12.77;6.03;;;;;;;;;;5050103;28;20259;-69
2023/10/11 05:02:11;;;;;;;11.03;5.70;;;;;;;;;;5048483;28;20210;-69
2023/10/11 05:04:44;;;;;;;8.60;6.10;;;;;;;;;;5049521;28;20669;-69
2023/10/11 05:07:12;;;;;;;10.07;5.67;;;;;;;;;;5049268;28;20200;-71
2023/10/11 05:09:39;;;;;;;9.93;6.00;;;;;;;;;;5048655;28;20525;-69
2023/10/11 05:12:09;;;;;;;11.67;5.53;;;;;;;;;;5049292;28;20215;-68
2023/10/11 05:14:40;;;;;;;10.23;5.10;;;;;;;;;;5049004;28;20208;-69
2023/10/11 05:19:56;;;;;;;11.13;6.27;;;;;;;;;;5046243;28;20230;-61
2023/10/11 05:22:29;;;;;;;12.73;6.17;;;;;;;;;;5047020;28;20385;-69
2023/10/11 05:25:12;;;;;;;10.77;6.30;;;;;;;;;;5048616;28;20282;-64
2023/10/11 05:27:47;;;;;;;9.47;6.00;;;;;;;;;;5048920;28;20326;-66
2023/10/11 05:30:28;;;;;;;9.83;6.20;;;;;;;;;;5049091;28;20195;-61
2023/10/11 05:32:58;;;;;;;8.77;6.03;;;;;;;;;;5048680;28;20235;-63
2023/10/11 05:35:53;;;;;;;11.13;6.03;;;;;;;;;;5047792;28;20203;-62
2023/10/11 05:52:09;;;;;;;8.07;5.33;;;;;;;;;;5047125;28;20338;-66
2023/10/11 05:54:36;;;;;;;12.50;5.60;;;;;;;;;;5047955;28;20222;-66
2023/10/11 05:57:04;;;;;;;9.33;5.50;;;;;;;;;;5047687;28;20685;-66
2023/10/11 05:59:33;;;;;;;10.50;5.40;;;;;;;;;;5047366;28;20262;-66
2023/10/11 06:02:02;;;;;;;10.30;5.40;;;;;;;;;;5048113;28;20273;-66
2023/10/11 06:04:30;;;;;;;11.63;5.43;;;;;;;;;;5047647;28;20553;-66
2023/10/11 06:06:58;;;;;;;8.00;5.87;;;;;;;;;;5047953;28;20243;-65
2023/10/11 06:09:27;;;;;;;9.73;6.00;;;;;;;;;;5047392;28;20250;-65
2023/10/11 06:11:57;;;;;;;10.77;5.83;;;;;;;;;;5047839;28;20214;-65
2023/10/11 06:14:24;;;;;;;9.87;5.90;;;;;;;;;;5047254;28;20229;-65
2023/10/11 06:16:57;;;;;;;8.80;5.60;;;;;;;;;;5047454;28;20720;-65
2023/10/11 06:19:26;;;;;;;10.70;5.70;;;;;;;;;;5046517;28;20659;-65
2023/10/11 06:21:59;;;;;;;9.47;6.33;;;;;;;;;;5047225;28;20211;-65
2023/10/11 06:24:26;;;;;;;10.47;6.07;;;;;;;;;;5046576;28;20245;-67
2023/10/11 06:26:53;;;;;;;10.37;5.90;;;;;;;;;;5047638;28;20594;-65
2023/10/11 06:29:24;;;;;;;13.27;6.30;;;;;;;;;;5046886;28;20192;-65
2023/10/11 06:31:52;;;;;;;10.37;5.60;;;;;;;;;;5046739;28;20844;-65
2023/10/11 06:34:23;;;;;;;12.10;6.77;;;;;;;;;;5046624;28;20200;-65
2023/10/11 06:36:53;;;;;;;13.93;5.90;;;;;;;;;;5047362;28;20639;-65
2023/10/11 06:39:50;;;;;;;9.87;5.70;;;;;;;;;;5046458;28;20227;-65
2023/10/11 06:42:21;;;;;;;17.53;6.07;;;;;;;;;;5046732;28;20226;-65
2023/10/11 06:44:49;;;;;;;8.38;6.00;;;;;;;;;;5045850;28;20286;-68
2023/10/11 06:47:18;;;;;;;11.80;5.63;;;;;;;;;;5046753;28;20674;-65
2023/10/11 06:49:47;;;;;;;9.45;5.60;;;;;;;;;;5046226;28;20287;-65
2023/10/11 06:52:17;;;;;;;7.33;5.23;;;;;;;;;;5045997;28;20809;-65
2023/10/11 06:54:47;;;;;;;8.83;5.87;;;;;;;;;;5045652;28;20218;-65
2023/10/11 06:57:19;;;;;;;11.48;5.53;;;;;;;;;;5045868;28;20212;-65
2023/10/11 06:59:49;;;;;;;11.53;6.60;;;;;;;;;;5045866;28;20231;-64
2023/10/11 07:02:31;;;;;;;14.48;6.55;;;;;;;;;;5046416;28;20207;-65
2023/10/11 07:05:00;;;;;;;12.00;5.22;;;;;;;;;;5045365;28;20222;-65
2023/10/11 07:07:32;;;;;;;16.30;5.97;;;;;;;;;;5046074;28;20211;-67
2023/10/11 07:10:00;;;;;;;7.93;5.15;;;;;;;;;;5046160;28;20204;-65
2023/10/11 07:12:39;;;;;;;17.40;6.25;;;;;;;;;;5046008;28;20227;-65
2023/10/11 07:15:09;;;;;;;10.05;5.63;;;;;;;;;;5045489;28;20211;-65
2023/10/11 07:17:36;;;;;;;9.77;5.03;;;;;;;;;;5046402;28;20215;-65
2023/10/11 07:20:44;;;;;;;11.77;5.32;;;;;;;;;;5045529;28;20242;-65
2023/10/11 07:22:54;;;;;;;9.73;5.45;;;;;;;;;;5045585;28;20207;-67
2023/10/11 07:25:36;;;;;;;10.90;5.88;;;;;;;;;;5045133;28;20390;-64
2023/10/11 07:28:03;;;;;;;10.93;5.40;;;;;;;;;;5033482;28;20212;-65
2023/10/11 07:30:37;;;;;;;15.25;6.00;;;;;;;;;;5044895;28;20290;-64
2023/10/11 07:33:05;;;;;;;14.82;5.95;;;;;;;;;;5045413;28;20285;-67
2023/10/11 07:35:33;;;;;;;10.50;5.68;;;;;;;;;;5045136;28;20290;-65
2023/10/11 07:38:01;;;;;;;14.18;6.03;;;;;;;;;;5045991;28;20246;-65
2023/10/11 07:40:34;;;;;;;7.97;5.63;;;;;;;;;;5043113;28;20241;-66
2023/10/11 07:43:02;;;;;;;10.32;5.05;;;;;;;;;;5043951;28;20231;-65
2023/10/11 07:45:29;;;;;;;10.55;5.53;;;;;;;;;;5042189;28;20203;-66
2023/10/11 07:47:57;;;;;;;10.15;5.82;;;;;;;;;;5045726;28;20207;-61
2023/10/11 07:50:24;;;;;;;13.55;6.65;;;;;;;;;;5046151;28;20203;-61
2023/10/11 07:52:52;;;;;;;12.45;6.07;;;;;;;;;;5046177;28;20875;-61
2023/10/11 07:55:24;;;;;;;13.88;5.63;;;;;;;;;;5046230;28;20199;-62
2023/10/11 07:57:51;;;;;;;11.57;5.25;;;;;;;;;;5026496;28;20212;-61
2023/10/11 08:00:19;;;;;;;10.45;5.22;;;;;;;;;;5035777;28;20223;-61
2023/10/11 08:02:56;;;;;;;19.27;5.85;;;;;;;;;;5046171;28;20207;-63
2023/10/11 08:05:25;;;;;;;12.43;5.80;;;;;;;;;;5045940;28;20556;-65
2023/10/11 08:07:52;;;;;;;12.25;5.28;;;;;;;;;;5046124;28;20314;-65
2023/10/11 08:10:33;;;;;;;11.75;5.20;;;;;;;;;;5049593;28;20287;-65
2023/10/11 08:13:00;;;;;;;9.50;5.05;;;;;;;;;;5049796;28;20211;-63
2023/10/11 08:15:28;;;;;;;9.57;5.45;;;;;;;;;;5029952;28;20212;-63
2023/10/11 08:17:55;;;;;;;11.35;5.60;;;;;;;;;;5038017;28;20235;-63
2023/10/11 08:20:28;;;;;;;12.30;4.95;;;;;;;;;;5049717;28;20219;-64
2023/10/11 08:22:55;;;;;;;10.95;4.78;;;;;;;;;;5049829;28;20250;-63
2023/10/11 08:25:27;;;;;;;11.65;5.90;;;;;;;;;;5049619;28;20597;-65
2023/10/11 08:28:10;;;;;;;15.93;5.78;;;;;;;;;;5046312;28;20261;-64
2023/10/11 08:30:38;;;;;;;12.77;5.45;;;;;;;;;;5059080;28;20195;-64
2023/10/11 08:33:06;;;;;;;15.25;5.32;;;;;;;;;;5051938;28;20214;-64
2023/10/11 08:35:33;;;;;;;7.78;5.15;;;;;;;;;;5049604;28;20204;-64
2023/10/11 08:38:04;;;;;;;11.85;5.22;;;;;;;;;;5049768;28;20234;-68
2023/10/11 08:40:36;;;;;;;12.75;5.70;;;;;;;;;;5041174;28;20231;-64
2023/10/11 08:43:04;;;;;;;9.57;5.22;;;;;;;;;;5049496;28;20228;-64
2023/10/11 08:45:33;;;;;;;11.80;4.25;;;;;;;;;;5049238;28;20701;-65
2023/10/11 08:48:00;;;;;;;10.48;5.15;;;;;;;;;;5049808;28;20257;-64
2023/10/11 08:50:32;;;;;;;12.05;5.03;;;;;;;;;;5048936;28;20725;-65
2023/10/11 08:53:01;;;;;;;12.90;4.95;;;;;;;;;;5049484;28;20214;-64
2023/10/11 08:55:28;;;;;;;6.93;4.55;;;;;;;;;;5047943;28;20211;-65
2023/10/11 08:57:56;;;;;;;10.60;4.80;;;;;;;;;;5049466;28;20210;-65
2023/10/11 09:00:31;;;;;;;7.88;4.80;;;;;;;;;;5048756;28;20219;-61
2023/10/11 09:02:58;;;;;;;9.25;4.70;;;;;;;;;;5043736;28;20214;-62
2023/10/11 09:05:42;;;;;;;8.98;4.25;;;;;;;;;;5048836;28;20318;-62
2023/10/11 09:08:21;;;;;;;8.52;4.50;;;;;;;;;;5047873;28;20200;-61
2023/10/11 09:10:49;;;;;;;13.10;4.55;;;;;;;;;;5042327;28;20297;-62
2023/10/11 09:13:27;;;;;;;10.73;4.68;;;;;;;;;;5048789;28;20295;-63
2023/10/11 09:15:55;;;;;;;9.63;4.63;;;;;;;;;;5046995;28;20844;-62
2023/10/11 09:18:25;;;;;;;7.75;4.40;;;;;;;;;;5048529;28;20235;-62
2023/10/11 09:21:08;;;;;;;8.10;4.55;;;;;;;;;;5048240;28;20642;-62
2023/10/11 09:23:35;;;;;;;12.82;4.38;;;;;;;;;;5048249;28;20207;-62
2023/10/11 09:26:03;;;;;;;10.75;4.53;;;;;;;;;;5048415;28;20676;-62
2023/10/11 09:28:33;;;;;;;13.15;5.45;;;;;;;;;;5048466;28;20214;-63
2023/10/11 09:31:11;;;;;;;9.82;4.35;;;;;;;;;;5048636;28;20236;-64
2023/10/11 09:33:38;;;;;;;7.35;3.75;;;;;;;;;;5048594;28;20208;-62
2023/10/11 09:36:06;;;;;;;8.80;4.53;;;;;;;;;;5048648;28;20211;-63
2023/10/11 09:38:39;;;;;;;9.98;4.65;;;;;;;;;;5047999;28;20270;-62
2023/10/11 09:41:07;;;;;;;8.52;3.97;;;;;;;;;;5028195;28;20228;-63
2023/10/11 09:43:38;;;;;;;6.88;3.97;;;;;;;;;;5028098;28;20401;-62
2023/10/11 09:46:11;;;;;;;13.80;4.10;;;;;;;;;;5028823;28;20213;-62
2023/10/11 09:48:38;;;;;;;6.47;4.22;;;;;;;;;;5028327;28;20219;-62
2023/10/11 09:51:08;;;;;;;9.73;4.30;;;;;;;;;;5048226;28;20305;-63
2023/10/11 09:53:41;;;;;;;8.45;3.90;;;;;;;;;;5047967;28;20216;-63
2023/10/11 09:56:15;;;;;;;7.88;4.05;;;;;;;;;;5047846;28;20215;-63
2023/10/11 09:58:46;;;;;;;8.05;3.83;;;;;;;;;;5046925;28;20211;-63
2023/10/11 10:01:18;;;;;;;15.60;4.38;;;;;;;;;;5047740;28;20223;-63
2023/10/11 10:03:47;;;;;;;11.07;4.18;;;;;;;;;;5047554;28;20246;-63
2023/10/11 10:06:19;;;;;;;4.93;3.92;;;;;;;;;;5028113;28;20673;-63
2023/10/11 10:08:50;;;;;;;10.93;3.90;;;;;;;;;;5028200;28;20208;-63
2023/10/11 10:11:19;;;;;;;7.65;4.13;;;;;;;;;;5048017;28;20208;-63
2023/10/11 10:14:23;;;;;;;14.10;4.25;;;;;;;;;;5047686;28;20215;-63
2023/10/11 10:17:10;;;;;;;8.25;3.78;;;;;;;;;;5047673;28;20235;-63
2023/10/11 10:19:39;;;;;;;13.48;4.15;;;;;;;;;;5046950;28;20314;-63
2023/10/11 10:22:15;;;;;;;6.85;3.92;;;;;;;;;;5047867;28;20651;-63
2023/10/11 10:24:43;;;;;;;10.75;3.85;;;;;;;;;;5047036;28;20663;-63
2023/10/11 10:27:33;;;;;;;8.65;3.97;;;;;;;;;;5047530;28;20673;-63
2023/10/11 10:30:03;;;;;;;10.60;3.85;;;;;;;;;;5047229;28;20257;-63
2023/10/11 10:32:30;;;;;;;12.45;3.63;;;;;;;;;;5046717;28;20265;-63
2023/10/11 10:35:12;;;;;;;6.25;3.25;;;;;;;;;;5046928;28;20214;-63
2023/10/11 10:37:55;;;;;;;10.85;4.30;;;;;;;;;;5047418;28;20300;-63
2023/10/11 10:40:25;;;;;;;12.23;3.28;;;;;;;;;;5046736;28;20223;-63
2023/10/11 10:43:14;;;;;;;5.32;3.45;;;;;;;;;;5046707;28;21046;-63
2023/10/11 10:45:42;;;;;;;9.85;3.67;;;;;;;;;;5046551;28;20607;-62
2023/10/11 10:48:13;;;;;;;7.72;3.63;;;;;;;;;;5045966;28;20235;-63
2023/10/11 10:50:47;;;;;;;10.90;3.45;;;;;;;;;;5046473;28;20203;-63
2023/10/11 10:53:14;;;;;;;7.60;3.60;;;;;;;;;;5046725;28;20227;-63
2023/10/11 10:55:42;;;;;;;5.10;3.38;;;;;;;;;;5042263;28;20211;-63
2023/10/11 10:58:08;;;;;;;7.47;3.33;;;;;;;;;;5045977;28;20214;-63
2023/10/11 11:00:40;;;;;;;12.85;4.22;;;;;;;;;;5046086;28;20312;-64
2023/10/11 11:03:17;;;;;;;9.10;3.20;;;;;;;;;;5046151;28;20960;-63
2023/10/11 11:05:55;;;;;;;9.48;3.30;;;;;;;;;;5045726;28;20258;-63
2023/10/11 11:08:25;;;;;;;9.27;3.67;;;;;;;;;;5045420;28;20199;-62
2023/10/11 11:10:55;;;;;;;5.30;3.53;;;;;;;;;;5045176;28;20202;-63
2023/10/11 11:13:22;;;;;;;8.00;3.53;;;;;;;;;;5045830;28;20289;-62
2023/10/11 11:15:55;;;;;;;9.15;3.50;;;;;;;;;;5046070;28;20261;-62
2023/10/11 11:18:31;;;;;;;5.68;3.15;;;;;;;;;;5045717;28;20204;-63
2023/10/11 11:21:02;;;;;;;6.13;3.38;;;;;;;;;;5043464;28;20242;-67
2023/10/11 11:23:31;;;;;;;10.27;3.50;;;;;;;;;;5045782;28;20650;-68
2023/10/11 11:26:04;;;;;;;9.27;3.17;;;;;;;;;;5040801;28;20227;-72
2023/10/11 11:28:39;;;;;;;6.53;3.08;;;;;;;;;;5045739;28;20238;-66
2023/10/11 11:31:10;;;;;;;8.10;3.30;;;;;;;;;;5045134;28;20322;-63
2023/10/11 11:33:47;;;;;;;6.82;3.20;;;;;;;;;;5025760;28;20263;-63
2023/10/11 11:36:27;;;;;;;10.13;3.17;;;;;;;;;;5042665;28;20199;-65
2023/10/11 11:38:53;;;;;;;8.07;3.25;;;;;;;;;;5044814;28;20235;-64
2023/10/11 11:41:20;;;;;;;10.30;3.17;;;;;;;;;;5045466;28;20236;-65
2023/10/11 11:43:47;;;;;;;12.38;3.75;;;;;;;;;;5044504;28;20269;-64
2023/10/11 11:46:15;;;;;;;9.45;3.42;;;;;;;;;;5039714;28;20267;-64
2023/10/11 11:48:43;;;;;;;12.68;2.80;;;;;;;;;;5032053;28;20208;-65
2023/10/11 11:51:14;;;;;;;7.53;2.42;;;;;;;;;;5042559;28;20253;-65
2023/10/11 11:53:43;;;;;;;6.30;3.00;;;;;;;;;;5046494;28;20211;-65
2023/10/11 11:56:11;;;;;;;7.88;3.00;;;;;;;;;;5049282;28;20207;-69
2023/10/11 11:58:38;;;;;;;6.43;2.83;;;;;;;;;;5043006;28;20685;-65
2023/10/11 12:01:15;;;;;;;8.50;3.20;;;;;;;;;;5049183;28;20238;-64
2023/10/11 12:03:43;;;;;;;7.93;2.70;;;;;;;;;;5051423;28;20203;-65
2023/10/11 12:08:57;;;;;;;8.00;2.85;;;;;;;;;;5041193;28;20211;-66
2023/10/11 12:11:28;;;;;;;4.43;2.53;;;;;;;;;;5043300;28;20636;-65
2023/10/11 12:13:56;;;;;;;6.22;2.85;;;;;;;;;;5042382;28;20496;-65
2023/10/11 12:16:23;;;;;;;7.97;3.13;;;;;;;;;;5041009;28;20214;-65
2023/10/11 12:18:50;;;;;;;8.85;2.83;;;;;;;;;;5037327;28;20375;-66
2023/10/11 12:21:19;;;;;;;12.50;3.40;;;;;;;;;;5042407;28;20231;-66
2023/10/11 12:23:47;;;;;;;10.68;3.03;;;;;;;;;;5041583;28;20212;-65
2023/10/11 12:26:16;;;;;;;6.43;2.60;;;;;;;;;;5040782;28;20203;-66
2023/10/11 12:28:43;;;;;;;4.90;2.70;;;;;;;;;;5038469;28;20200;-65
2023/10/11 12:31:11;;;;;;;5.97;2.65;;;;;;;;;;5039959;28;20618;-64
2023/10/11 12:33:38;;;;;;;15.68;3.50;;;;;;;;;;5041963;28;20212;-65
2023/10/11 12:36:06;;;;;;;9.00;3.20;;;;;;;;;;5053532;28;20203;-65
2023/10/11 12:38:36;;;;;;;8.18;2.78;;;;;;;;;;5051874;28;20212;-65
2023/10/11 12:41:03;;;;;;;5.18;2.70;;;;;;;;;;5047614;28;20280;-65
2023/10/11 12:43:32;;;;;;;6.80;2.97;;;;;;;;;;5051414;28;20754;-66
2023/10/11 12:45:59;;;;;;;5.75;2.90;;;;;;;;;;5048687;28;20211;-65
2023/10/11 12:48:27;;;;;;;10.50;3.42;;;;;;;;;;5044743;28;20666;-63
2023/10/11 12:50:54;;;;;;;5.28;2.70;;;;;;;;;;5046206;28;20204;-66
2023/10/11 12:53:21;;;;;;;7.43;2.60;;;;;;;;;;5044138;28;20212;-65
2023/10/11 12:55:50;;;;;;;6.03;2.80;;;;;;;;;;5040532;28;20623;-65
2023/10/11 12:58:19;;;;;;;7.22;2.88;;;;;;;;;;5044946;28;20215;-65
2023/10/11 13:00:51;;;;;;;9.68;3.30;;;;;;;;;;5061100;28;20255;-73
2023/10/11 13:03:24;;;;;;;8.93;3.17;;;;;;;;;;5047223;28;20216;-66
2023/10/11 13:05:52;;;;;;;8.60;3.05;;;;;;;;;;5047872;28;20235;-66
2023/10/11 13:08:24;;;;;;;6.18;2.60;;;;;;;;;;5050377;28;20925;-66
2023/10/11 13:10:53;;;;;;;9.77;2.85;;;;;;;;;;5045771;28;20250;-69
2023/10/11 13:13:21;;;;;;;10.60;2.67;;;;;;;;;;5054552;28;20222;-66
2023/10/11 13:15:57;;;;;;;8.48;2.42;;;;;;;;;;5032579;28;20224;-67
2023/10/11 13:18:26;;;;;;;8.23;2.55;;;;;;;;;;5046202;28;20213;-67
2023/10/11 13:20:53;;;;;;;5.38;2.85;;;;;;;;;;5045304;28;20347;-67
2023/10/11 13:23:28;;;;;;;11.00;2.70;;;;;;;;;;5057225;28;20659;-67
2023/10/11 13:25:57;;;;;;;6.18;2.80;;;;;;;;;;5045413;28;20877;-63
2023/10/11 13:28:26;;;;;;;4.80;2.67;;;;;;;;;;5045493;28;20211;-63
2023/10/11 13:30:54;;;;;;;4.45;2.90;;;;;;;;;;5055247;28;20410;-63
2023/10/11 13:33:21;;;;;;;3.65;2.83;;;;;;;;;;5067164;28;20687;-63
2023/10/11 13:35:50;;;;;;;5.88;2.53;;;;;;;;;;5047875;28;20246;-63
2023/10/11 13:38:18;;;;;;;8.02;2.92;;;;;;;;;;5046193;28;20207;-63
2023/10/11 13:40:45;;;;;;;6.63;3.25;;;;;;;;;;5056796;28;20444;-62
2023/10/11 13:43:14;;;;;;;6.57;2.90;;;;;;;;;;5047339;28;20332;-68
2023/10/11 13:45:46;;;;;;;5.75;3.13;;;;;;;;;;5041651;28;20200;-62
2023/10/11 13:48:17;;;;;;;5.35;2.70;;;;;;;;;;5032800;28;20196;-62
2023/10/11 13:50:49;;;;;;;7.57;2.63;;;;;;;;;;5053563;28;20203;-63
2023/10/11 13:53:20;;;;;;;6.53;2.67;;;;;;;;;;5063172;28;20204;-62
2023/10/11 13:55:51;;;;;;;3.72;2.40;;;;;;;;;;5044915;28;20281;-61
2023/10/11 13:58:20;;;;;;;7.60;3.40;;;;;;;;;;5043305;28;20211;-62
2023/10/11 14:01:13;;;;;;;4.60;2.92;;;;;;;;;;5045600;28;20215;-62
2023/10/11 14:03:45;;;;;;;16.15;3.20;;;;;;;;;;5060945;28;20243;-62
2023/10/11 14:06:23;;;;;;;9.73;2.83;;;;;;;;;;5049081;28;20207;-62
2023/10/11 14:08:50;;;;;;;5.15;2.72;;;;;;;;;;5045755;28;20740;-62
2023/10/11 14:11:23;;;;;;;5.35;2.70;;;;;;;;;;5045603;28;20195;-62
2023/10/11 14:13:53;;;;;;;8.13;2.90;;;;;;;;;;5046211;28;20239;-61
2023/10/11 14:16:27;;;;;;;7.80;3.10;;;;;;;;;;5046117;28;20666;-61
2023/10/11 14:18:54;;;;;;;6.50;3.03;;;;;;;;;;5039891;28;21952;-62
2023/10/11 14:21:23;;;;;;;7.88;2.80;;;;;;;;;;5046619;28;20277;-62
2023/10/11 14:23:51;;;;;;;6.15;2.80;;;;;;;;;;5045738;28;20410;-62
2023/10/11 14:26:19;;;;;;;5.85;2.95;;;;;;;;;;5045118;28;20235;-61
2023/10/11 14:28:46;;;;;;;7.38;3.38;;;;;;;;;;5047063;28;20208;-61
2023/10/11 14:31:22;;;;;;;8.50;3.60;;;;;;;;;;5046496;28;20656;-61
2023/10/11 14:33:49;;;;;;;12.25;3.58;;;;;;;;;;5046747;28;20681;-61
2023/10/11 14:36:23;;;;;;;5.07;3.13;;;;;;;;;;5045097;28;20212;-62
2023/10/11 14:38:52;;;;;;;7.60;3.10;;;;;;;;;;5045850;28;20208;-74
2023/10/11 14:41:21;;;;;;;8.45;2.83;;;;;;;;;;5034968;28;20247;-62
2023/10/11 14:43:49;;;;;;;9.80;3.53;;;;;;;;;;5046055;28;20352;-61
2023/10/11 14:46:19;;;;;;;11.18;3.00;;;;;;;;;;5046278;28;20227;-62
2023/10/11 14:48:48;;;;;;;7.88;3.30;;;;;;;;;;5046417;28;20246;-61
2023/10/11 14:51:15;;;;;;;6.80;2.75;;;;;;;;;;5046816;28;20204;-61
2023/10/11 14:53:44;;;;;;;9.30;2.63;;;;;;;;;;5046293;28;20215;-61
2023/10/11 14:56:11;;;;;;;4.97;2.53;;;;;;;;;;5046393;28;20294;-61
2023/10/11 14:58:38;;;;;;;5.63;3.30;;;;;;;;;;5040828;28;20211;-61
2023/10/11 15:01:07;;;;;;;5.05;2.30;;;;;;;;;;5044327;28;20200;-61
2023/10/11 15:03:36;;;;;;;5.30;2.92;;;;;;;;;;5045054;28;20348;-61
2023/10/11 15:06:08;;;;;;;7.90;2.45;;;;;;;;;;5046228;28;20441;-61
2023/10/11 15:08:36;;;;;;;6.88;2.30;;;;;;;;;;5045873;28;20693;-62
2023/10/11 15:11:04;;;;;;;2.92;2.63;;;;;;;;;;5046359;28;20210;-61
2023/10/11 15:13:32;;;;;;;6.43;2.55;;;;;;;;;;5045917;28;20203;-63
2023/10/11 15:16:00;;;;;;;5.53;2.63;;;;;;;;;;5045950;28;20819;-63
2023/10/11 15:18:27;;;;;;;4.97;2.45;;;;;;;;;;5045602;28;20203;-64